createdAt,value
2019-05-01T00:01:51.918Z,6.73
2019-05-01T00:04:28.619Z,12.00
2019-05-01T00:06:57.940Z,9.30
2019-05-01T00:09:23.309Z,11.03
2019-05-01T00:11:48.826Z,11.27
2019-05-01T00:14:14.595Z,11.27
2019-05-01T00:16:40.626Z,11.87
2019-05-01T00:19:05.981Z,12.50
2019-05-01T00:21:31.359Z,15.10
2019-05-01T00:23:56.735Z,14.70
2019-05-01T00:26:23.118Z,17.93
2019-05-01T00:28:48.670Z,17.60
2019-05-01T00:31:15.806Z,18.60
2019-05-01T00:33:41.262Z,14.50
2019-05-01T00:36:06.714Z,17.13
2019-05-01T00:38:33.250Z,16.10
2019-05-01T00:40:58.634Z,15.83
2019-05-01T00:43:23.996Z,17.43
2019-05-01T00:45:49.365Z,17.60
2019-05-01T00:48:15.114Z,16.33
2019-05-01T00:50:40.556Z,17.53
2019-05-01T00:53:05.917Z,17.40
2019-05-01T00:55:49.299Z,18.57
2019-05-01T00:58:33.250Z,16.90
2019-05-01T01:01:09.812Z,20.73
2019-05-01T01:03:35.174Z,18.00
2019-05-01T01:06:00.883Z,19.37
2019-05-01T01:08:26.306Z,20.47
2019-05-01T01:10:51.770Z,20.17
2019-05-01T01:13:17.475Z,23.63
2019-05-01T01:15:42.890Z,20.33
2019-05-01T01:18:08.567Z,19.40
2019-05-01T01:20:33.943Z,22.70
2019-05-01T01:22:59.356Z,19.03
2019-05-01T01:25:25.159Z,22.97
2019-05-01T01:27:50.529Z,20.23
2019-05-01T01:30:16.127Z,20.57
2019-05-01T01:32:41.523Z,22.33
2019-05-01T01:35:07.136Z,23.90
2019-05-01T01:37:32.517Z,20.93
2019-05-01T01:39:58.195Z,23.90
2019-05-01T01:42:34.474Z,23.50
2019-05-01T01:45:31.219Z,25.13
2019-05-01T01:48:15.420Z,22.67
2019-05-01T01:50:42.452Z,22.07
2019-05-01T01:53:08.222Z,25.30
2019-05-01T01:55:33.843Z,24.90
2019-05-01T01:57:59.334Z,25.13
2019-05-01T02:00:28.306Z,23.77
2019-05-01T02:02:57.770Z,24.73
2019-05-01T02:05:27.204Z,26.87
2019-05-01T02:07:52.773Z,27.13
2019-05-01T02:10:18.750Z,29.37
2019-05-01T02:12:45.820Z,27.37
2019-05-01T02:15:11.392Z,27.23
2019-05-01T02:17:36.842Z,29.23
2019-05-01T02:20:02.290Z,26.73
2019-05-01T02:22:27.681Z,26.47
2019-05-01T02:24:53.399Z,27.87
2019-05-01T02:27:27.830Z,30.80
2019-05-01T02:29:57.099Z,29.47
2019-05-01T02:32:24.778Z,30.63
2019-05-01T02:34:51.883Z,29.93
2019-05-01T02:37:19.025Z,29.17
2019-05-01T02:39:46.609Z,31.73
2019-05-01T02:42:14.295Z,34.47
2019-05-01T02:44:44.778Z,32.77
2019-05-01T02:47:13.144Z,33.60
2019-05-01T02:49:53.173Z,34.73
2019-05-01T02:52:19.498Z,31.90
2019-05-01T02:54:47.748Z,35.13
2019-05-01T02:57:15.690Z,36.30
2019-05-01T02:59:44.567Z,39.83
2019-05-01T03:02:10.933Z,37.33
2019-05-01T03:04:36.992Z,36.17
2019-05-01T03:07:04.781Z,34.80
2019-05-01T03:09:30.559Z,34.13
2019-05-01T03:11:57.718Z,39.33
2019-05-01T03:14:26.062Z,38.80
2019-05-01T03:16:53.827Z,37.67
2019-05-01T03:19:39.021Z,37.93
2019-05-01T03:22:11.664Z,44.33
2019-05-01T03:24:39.526Z,41.57
2019-05-01T03:27:05.824Z,44.23
2019-05-01T03:29:31.695Z,45.90
2019-05-01T03:32:15.451Z,44.20
2019-05-01T03:34:28.131Z,41.33
2019-05-01T03:36:54.560Z,43.77
2019-05-01T03:39:20.628Z,45.70
2019-05-01T03:41:47.293Z,48.53
2019-05-01T03:44:12.932Z,47.27
2019-05-01T03:46:38.642Z,44.27
2019-05-01T03:49:06.558Z,41.97
2019-05-01T03:51:31.997Z,46.43
2019-05-01T03:53:58.071Z,47.60
2019-05-01T03:56:23.783Z,44.47
2019-05-01T03:58:49.403Z,48.60
2019-05-01T04:01:44.224Z,47.17
2019-05-01T04:04:28.629Z,47.77
2019-05-01T04:06:54.920Z,44.27
2019-05-01T04:09:21.470Z,45.93
2019-05-01T04:11:46.978Z,46.93
2019-05-01T04:14:12.806Z,45.27
2019-05-01T04:16:39.033Z,45.07
2019-05-01T04:19:05.559Z,45.37
2019-05-01T04:21:36.635Z,47.00
2019-05-01T04:24:02.017Z,46.30
2019-05-01T04:26:27.796Z,43.37
2019-05-01T04:29:05.861Z,45.87
2019-05-01T04:31:59.547Z,45.20
2019-05-01T04:34:46.697Z,44.23
2019-05-01T04:37:13.491Z,44.97
2019-05-01T04:39:39.004Z,47.17
2019-05-01T04:42:04.598Z,45.20
2019-05-01T04:44:29.970Z,47.33
2019-05-01T04:46:55.668Z,46.60
2019-05-01T04:49:21.042Z,50.93
2019-05-01T04:51:46.531Z,44.60
2019-05-01T04:54:12.371Z,48.50
2019-05-01T04:56:37.766Z,46.20
2019-05-01T04:59:03.696Z,48.03
2019-05-01T05:01:35.285Z,46.77
2019-05-01T05:04:00.770Z,47.23
2019-05-01T05:06:26.187Z,46.30
2019-05-01T05:08:51.649Z,49.77
2019-05-01T05:11:22.634Z,48.80
2019-05-01T05:14:10.339Z,49.53
2019-05-01T05:16:52.323Z,48.50
2019-05-01T05:19:17.954Z,50.57
2019-05-01T05:21:43.424Z,50.53
2019-05-01T05:24:08.996Z,49.07
2019-05-01T05:26:35.219Z,49.67
2019-05-01T05:29:01.278Z,50.23
2019-05-01T05:31:28.398Z,46.50
2019-05-01T05:33:56.570Z,50.10
2019-05-01T05:36:25.021Z,49.03
2019-05-01T05:38:59.030Z,52.67
2019-05-01T05:41:25.258Z,49.47
2019-05-01T05:43:50.622Z,50.40
2019-05-01T05:46:16.611Z,50.77
2019-05-01T05:48:42.646Z,51.37
2019-05-01T05:51:48.391Z,51.03
2019-05-01T05:54:53.123Z,55.17
2019-05-01T05:57:26.202Z,52.17
2019-05-01T05:59:57.573Z,52.27
2019-05-01T06:02:36.106Z,51.57
2019-05-01T06:05:12.285Z,54.10
2019-05-01T06:07:44.813Z,54.90
2019-05-01T06:10:29.760Z,54.50
2019-05-01T06:13:17.984Z,56.87
2019-05-01T06:15:53.662Z,57.07
2019-05-01T06:18:27.273Z,54.80
2019-05-01T06:21:04.858Z,58.70
2019-05-01T06:23:47.378Z,53.53
2019-05-01T06:26:31.890Z,55.63
2019-05-01T06:29:00.756Z,60.80
2019-05-01T06:31:25.313Z,56.07
2019-05-01T06:33:52.978Z,61.60
2019-05-01T06:36:19.909Z,62.00
2019-05-01T06:38:45.666Z,57.87
2019-05-01T06:41:11.914Z,58.57
2019-05-01T06:44:04.064Z,59.10
2019-05-01T06:46:58.392Z,61.57
2019-05-01T06:49:39.516Z,60.50
2019-05-01T06:52:06.522Z,58.60
2019-05-01T06:54:34.697Z,66.77
2019-05-01T06:57:02.426Z,61.90
2019-05-01T06:59:31.407Z,60.47
2019-05-01T07:02:00.126Z,63.83
2019-05-01T07:04:26.299Z,67.40
2019-05-01T07:06:52.454Z,62.33
2019-05-01T07:09:27.907Z,62.60
2019-05-01T07:11:47.703Z,68.40
2019-05-01T07:14:16.578Z,68.03
2019-05-01T07:16:39.368Z,69.10
2019-05-01T07:19:07.029Z,66.57
2019-05-01T07:21:32.866Z,65.90
2019-05-01T07:23:58.474Z,65.43
2019-05-01T07:26:23.842Z,63.73
2019-05-01T07:28:50.994Z,66.13
2019-05-01T07:31:16.673Z,63.40
2019-05-01T07:33:46.991Z,60.93
2019-05-01T07:36:15.161Z,62.07
2019-05-01T07:38:40.478Z,62.07
2019-05-01T07:41:06.434Z,61.83
2019-05-01T07:43:44.146Z,59.67
2019-05-01T07:46:28.854Z,59.33
2019-05-01T07:48:54.255Z,63.67
2019-05-01T07:51:20.898Z,55.97
2019-05-01T07:53:47.150Z,57.93
2019-05-01T07:56:13.633Z,56.73
2019-05-01T07:58:39.517Z,52.07
2019-05-01T08:01:17.672Z,60.60
2019-05-01T08:03:42.751Z,57.97
2019-05-01T08:06:06.941Z,54.37
2019-05-01T08:08:32.891Z,53.47
2019-05-01T08:10:59.958Z,52.13
2019-05-01T08:13:26.354Z,50.07
2019-05-01T08:15:51.872Z,53.07
2019-05-01T08:18:27.998Z,49.77
2019-05-01T08:20:57.489Z,47.60
2019-05-01T08:23:22.860Z,47.80
2019-05-01T08:25:48.225Z,49.40
2019-05-01T08:28:27.687Z,47.77
2019-05-01T08:31:13.885Z,47.90
2019-05-01T08:33:55.081Z,46.17
2019-05-01T08:36:20.937Z,47.03
2019-05-01T08:38:46.303Z,45.07
2019-05-01T08:41:11.913Z,43.77
2019-05-01T08:43:38.184Z,42.27
2019-05-01T08:46:21.750Z,42.13
2019-05-01T08:49:06.783Z,41.30
2019-05-01T08:51:34.820Z,37.80
2019-05-01T08:54:00.173Z,38.27
2019-05-01T08:56:25.537Z,38.53
2019-05-01T08:58:51.082Z,38.93
2019-05-01T09:01:16.511Z,41.10
2019-05-01T09:03:41.831Z,35.90
2019-05-01T09:06:07.222Z,36.30
2019-05-01T09:08:33.350Z,38.50
2019-05-01T09:11:00.780Z,37.60
2019-05-01T09:13:27.242Z,34.70
2019-05-01T09:15:53.702Z,39.00
2019-05-01T09:18:19.071Z,37.37
2019-05-01T09:20:46.041Z,33.63
2019-05-01T09:23:14.397Z,37.27
2019-05-01T09:25:47.871Z,34.43
2019-05-01T09:28:24.942Z,38.10
2019-05-01T09:31:01.572Z,40.50
2019-05-01T09:33:26.174Z,43.47
2019-05-01T09:35:50.912Z,41.77
2019-05-01T09:38:17.253Z,41.20
2019-05-01T09:40:42.642Z,46.60
2019-05-01T09:43:08.221Z,41.80
2019-05-01T09:45:33.677Z,39.60
2019-05-01T09:47:59.258Z,41.27
2019-05-01T09:50:25.769Z,38.57
2019-05-01T09:53:14.937Z,38.10
2019-05-01T09:56:07.674Z,38.23
2019-05-01T09:58:32.882Z,43.23
2019-05-01T10:01:00.422Z,39.63
2019-05-01T10:03:25.785Z,38.30
2019-05-01T10:05:51.158Z,40.40
2019-05-01T10:08:16.649Z,36.23
2019-05-01T10:10:42.022Z,39.27
2019-05-01T10:13:07.402Z,40.73
2019-05-01T10:15:32.827Z,39.37
2019-05-01T10:17:58.230Z,38.90
2019-05-01T10:20:23.599Z,42.93
2019-05-01T10:22:48.998Z,42.50
2019-05-01T10:25:14.359Z,38.27
2019-05-01T10:27:42.328Z,39.27
2019-05-01T10:30:36.376Z,38.37
2019-05-01T10:33:06.803Z,38.37
2019-05-01T10:36:06.474Z,38.80
2019-05-01T10:38:31.831Z,40.50
2019-05-01T10:40:57.606Z,39.57
2019-05-01T10:43:22.966Z,36.07
2019-05-01T10:45:48.342Z,38.37
2019-05-01T10:48:13.762Z,36.50
2019-05-01T10:50:39.158Z,37.87
2019-05-01T10:53:04.617Z,37.23
2019-05-01T10:55:30.024Z,33.73
2019-05-01T10:57:55.398Z,35.50
2019-05-01T11:00:21.061Z,34.77
2019-05-01T11:02:46.520Z,29.70
2019-05-01T11:05:12.082Z,27.80
2019-05-01T11:07:37.491Z,26.15
2019-05-01T11:10:02.860Z,25.88
2019-05-01T11:12:28.264Z,27.10
2019-05-01T11:14:53.630Z,24.32
2019-05-01T11:17:19.387Z,24.20
2019-05-01T11:19:44.778Z,24.05
2019-05-01T11:22:10.241Z,24.23
2019-05-01T11:24:35.755Z,22.95
2019-05-01T11:27:01.128Z,24.30
2019-05-01T11:29:26.914Z,22.10
2019-05-01T11:31:59.375Z,21.48
2019-05-01T11:34:55.803Z,21.02
2019-05-01T11:37:31.484Z,19.85
2019-05-01T11:40:04.090Z,22.02
2019-05-01T11:42:29.490Z,22.45
2019-05-01T11:44:54.851Z,21.25
2019-05-01T11:47:20.255Z,20.40
2019-05-01T11:49:45.633Z,20.45
2019-05-01T11:52:11.008Z,19.45
2019-05-01T11:54:36.403Z,21.37
2019-05-01T11:57:01.784Z,21.17
2019-05-01T11:59:27.179Z,19.10
2019-05-01T12:01:52.575Z,17.85
2019-05-01T12:04:18.290Z,17.70
2019-05-01T12:06:44.168Z,16.52
2019-05-01T12:09:09.529Z,16.65
2019-05-01T12:11:38.104Z,18.07
2019-05-01T12:14:03.592Z,16.62
2019-05-01T12:16:46.867Z,17.65
2019-05-01T12:19:13.427Z,16.48
2019-05-01T12:21:38.789Z,15.55
2019-05-01T12:24:05.762Z,16.80
2019-05-01T12:26:32.265Z,14.73
2019-05-01T12:28:57.638Z,15.20
2019-05-01T12:31:23.049Z,15.40
2019-05-01T12:33:48.414Z,16.97
2019-05-01T12:36:13.790Z,16.32
2019-05-01T12:38:39.195Z,17.15
2019-05-01T12:41:38.864Z,16.87
2019-05-01T12:44:04.306Z,16.60
2019-05-01T12:46:42.810Z,16.95
2019-05-01T12:49:08.313Z,18.80
2019-05-01T12:51:35.349Z,13.98
2019-05-01T12:54:09.495Z,13.45
2019-05-01T12:56:38.349Z,13.13
2019-05-01T12:59:03.729Z,12.55
2019-05-01T13:01:29.235Z,12.75
2019-05-01T13:03:54.599Z,14.80
2019-05-01T13:06:20.347Z,13.05
2019-05-01T13:08:45.706Z,10.80
2019-05-01T13:11:12.162Z,13.20
2019-05-01T13:13:37.562Z,11.20
2019-05-01T13:16:02.939Z,11.80
2019-05-01T13:18:28.330Z,12.07
2019-05-01T13:20:53.685Z,11.03
2019-05-01T13:23:20.243Z,10.75
2019-05-01T13:25:49.832Z,9.78
2019-05-01T13:28:34.314Z,11.22
2019-05-01T13:31:21.452Z,10.03
2019-05-01T13:33:47.791Z,12.33
2019-05-01T13:36:13.563Z,10.43
2019-05-01T13:38:38.918Z,11.50
2019-05-01T13:41:04.393Z,7.87
2019-05-01T13:43:29.779Z,8.70
2019-05-01T13:45:55.144Z,10.13
2019-05-01T13:48:20.538Z,8.63
2019-05-01T13:50:46.970Z,8.78
2019-05-01T13:53:12.378Z,7.25
2019-05-01T13:55:37.726Z,6.22
2019-05-01T13:58:03.109Z,7.37
2019-05-01T14:00:28.702Z,6.05
2019-05-01T14:02:54.087Z,7.40
2019-05-01T14:05:20.142Z,7.17
2019-05-01T14:07:45.732Z,9.50
2019-05-01T14:10:11.189Z,7.12
2019-05-01T14:12:36.543Z,7.20
2019-05-01T14:15:01.946Z,9.40
2019-05-01T14:17:27.374Z,5.97
2019-05-01T14:20:02.450Z,6.35
2019-05-01T14:22:36.666Z,5.67
2019-05-01T14:25:03.470Z,7.25
2019-05-01T14:27:28.826Z,7.40
2019-05-01T14:29:54.185Z,6.60
2019-05-01T14:32:19.603Z,7.70
2019-05-01T14:34:44.921Z,6.15
2019-05-01T14:37:10.342Z,5.65
2019-05-01T14:39:35.693Z,7.75
2019-05-01T14:42:01.107Z,7.67
2019-05-01T14:44:36.317Z,6.58
2019-05-01T14:46:53.466Z,6.42
2019-05-01T14:49:19.192Z,5.67
2019-05-01T14:51:44.558Z,6.53
2019-05-01T14:54:10.071Z,6.80
2019-05-01T14:56:35.426Z,5.47
2019-05-01T14:59:01.174Z,7.60
2019-05-01T15:01:26.562Z,9.35
2019-05-01T15:03:51.981Z,7.80
2019-05-01T15:06:17.367Z,4.90
2019-05-01T15:08:42.720Z,4.53
2019-05-01T15:11:08.077Z,7.17
2019-05-01T15:13:47.890Z,5.05
2019-05-01T15:16:21.620Z,6.85
2019-05-01T15:19:14.986Z,5.70
2019-05-01T15:21:40.338Z,5.58
2019-05-01T15:24:05.847Z,5.55
2019-05-01T15:26:31.256Z,6.97
2019-05-01T15:28:56.610Z,5.53
2019-05-01T15:31:22.083Z,5.75
2019-05-01T15:33:47.422Z,6.23
2019-05-01T15:36:12.782Z,4.80
2019-05-01T15:38:38.176Z,4.40
2019-05-01T15:41:22.477Z,6.95
2019-05-01T15:44:06.789Z,5.93
2019-05-01T15:46:32.634Z,5.58
2019-05-01T15:48:58.054Z,7.03
2019-05-01T15:51:23.411Z,5.20
2019-05-01T15:53:49.115Z,5.47
2019-05-01T15:56:14.501Z,7.40
2019-05-01T15:58:40.246Z,8.90
2019-05-01T16:01:05.846Z,8.07
2019-05-01T16:03:31.210Z,7.63
2019-05-01T16:05:56.594Z,7.17
2019-05-01T16:08:21.982Z,4.70
2019-05-01T16:11:00.446Z,8.73
2019-05-01T16:13:25.843Z,6.80
2019-05-01T16:15:51.209Z,6.70
2019-05-01T16:18:16.788Z,5.63
2019-05-01T16:20:42.211Z,4.50
2019-05-01T16:23:07.863Z,5.13
2019-05-01T16:25:33.250Z,4.80
2019-05-01T16:27:58.606Z,7.07
2019-05-01T16:30:25.691Z,3.50
2019-05-01T16:32:51.117Z,4.57
2019-05-01T16:35:16.480Z,4.27
2019-05-01T16:37:41.885Z,3.43
2019-05-01T16:40:29.641Z,3.97
2019-05-01T16:42:55.031Z,5.17
2019-05-01T16:45:20.451Z,4.50
2019-05-01T16:47:45.822Z,5.20
2019-05-01T16:50:11.346Z,6.37
2019-05-01T16:52:39.282Z,5.83
2019-05-01T16:55:05.721Z,4.60
2019-05-01T16:57:31.143Z,6.20
2019-05-01T16:59:56.543Z,4.37
2019-05-01T17:02:39.517Z,3.90
2019-05-01T17:05:30.182Z,5.37
2019-05-01T17:08:02.884Z,5.30
2019-05-01T17:10:32.716Z,4.50
2019-05-01T17:12:58.482Z,6.33
2019-05-01T17:15:35.390Z,6.47
2019-05-01T17:18:00.743Z,6.00
2019-05-01T17:20:26.408Z,7.73
2019-05-01T17:22:51.946Z,7.53
2019-05-01T17:25:17.330Z,5.10
2019-05-01T17:27:42.921Z,5.63
2019-05-01T17:30:12.694Z,5.60
2019-05-01T17:32:39.803Z,6.87
2019-05-01T17:35:08.014Z,5.13
2019-05-01T17:37:35.062Z,5.40
2019-05-01T17:40:00.426Z,8.40
2019-05-01T17:42:25.779Z,6.07
2019-05-01T17:44:51.174Z,8.90
2019-05-01T17:47:17.998Z,7.47
2019-05-01T17:49:44.857Z,8.47
2019-05-01T17:52:10.735Z,8.40
2019-05-01T17:54:36.089Z,9.07
2019-05-01T17:57:01.494Z,7.83
2019-05-01T17:59:27.236Z,7.67
2019-05-01T18:02:05.197Z,7.53
2019-05-01T18:05:07.697Z,7.57
2019-05-01T18:07:34.957Z,8.40
2019-05-01T18:10:00.230Z,6.77
2019-05-01T18:12:28.590Z,7.33
2019-05-01T18:14:52.602Z,8.73
2019-05-01T18:17:18.006Z,9.07
2019-05-01T18:19:43.386Z,10.10
2019-05-01T18:22:26.772Z,7.10
2019-05-01T18:25:09.867Z,8.90
2019-05-01T18:28:01.747Z,8.93
2019-05-01T18:30:32.632Z,8.53
2019-05-01T18:32:58.035Z,9.40
2019-05-01T18:35:23.533Z,7.17
2019-05-01T18:37:57.313Z,8.73
2019-05-01T18:40:34.151Z,9.93
2019-05-01T18:42:59.571Z,11.57
2019-05-01T18:45:54.523Z,7.57
2019-05-01T18:48:20.923Z,10.10
2019-05-01T18:50:49.480Z,10.13
2019-05-01T18:53:13.818Z,8.50
2019-05-01T18:55:39.217Z,7.10
2019-05-01T18:58:04.681Z,15.70
2019-05-01T19:00:30.106Z,7.10
2019-05-01T19:02:59.550Z,9.13
2019-05-01T19:05:22.484Z,9.20
2019-05-01T19:07:47.871Z,10.60
2019-05-01T19:10:13.391Z,7.57
2019-05-01T19:12:38.778Z,10.87
2019-05-01T19:15:05.396Z,8.23
2019-05-01T19:17:31.399Z,7.93
2019-05-01T19:19:56.766Z,7.73
2019-05-01T19:22:22.196Z,7.97
2019-05-01T19:24:48.733Z,7.63
2019-05-01T19:27:19.014Z,8.50
2019-05-01T19:29:41.959Z,7.90
2019-05-01T19:32:08.257Z,6.73
2019-05-01T19:34:34.693Z,8.47
2019-05-01T19:37:00.094Z,9.17
2019-05-01T19:39:25.438Z,7.10
2019-05-01T19:41:51.096Z,7.60
2019-05-01T19:44:18.794Z,8.53
2019-05-01T19:46:45.389Z,7.47
2019-05-01T19:49:10.763Z,9.63
2019-05-01T19:51:36.202Z,8.27
2019-05-01T19:54:01.613Z,8.27
2019-05-01T19:56:27.051Z,8.43
2019-05-01T19:58:52.794Z,7.33
2019-05-01T20:01:18.282Z,9.43
2019-05-01T20:03:43.670Z,12.33
2019-05-01T20:06:09.083Z,18.53
2019-05-01T20:08:34.780Z,18.43
2019-05-01T20:11:01.411Z,10.47
2019-05-01T20:13:26.966Z,10.60
2019-05-01T20:15:52.347Z,9.03
2019-05-01T20:18:17.700Z,8.63
2019-05-01T20:20:43.104Z,12.23
2019-05-01T20:23:08.533Z,9.60
2019-05-01T20:25:33.943Z,8.60
2019-05-01T20:27:59.306Z,8.77
2019-05-01T20:30:24.716Z,6.37
2019-05-01T20:32:50.121Z,9.57
2019-05-01T20:35:15.464Z,9.50
2019-05-01T20:37:40.867Z,9.97
2019-05-01T20:40:11.310Z,9.27
2019-05-01T20:42:35.038Z,9.57
2019-05-01T20:45:05.659Z,8.23
2019-05-01T20:47:34.965Z,8.70
2019-05-01T20:49:54.980Z,9.17
2019-05-01T20:52:20.342Z,11.30
2019-05-01T20:54:45.812Z,8.13
2019-05-01T20:57:20.885Z,9.57
2019-05-01T20:59:44.370Z,9.80
2019-05-01T21:02:09.734Z,10.37
2019-05-01T21:05:07.546Z,11.00
2019-05-01T21:07:37.058Z,9.40
2019-05-01T21:10:03.035Z,10.70
2019-05-01T21:12:30.014Z,9.43
2019-05-01T21:14:55.445Z,11.63
2019-05-01T21:17:20.839Z,9.37
2019-05-01T21:19:46.197Z,11.20
2019-05-01T21:22:11.578Z,10.47
2019-05-01T21:24:36.941Z,9.80
2019-05-01T21:27:03.464Z,12.93
2019-05-01T21:29:28.977Z,13.43
2019-05-01T21:31:54.529Z,10.30
2019-05-01T21:34:19.882Z,17.30
2019-05-01T21:36:47.772Z,14.43
2019-05-01T21:39:12.635Z,13.57
2019-05-01T21:41:38.025Z,11.70
2019-05-01T21:44:06.508Z,11.83
2019-05-01T21:46:30.475Z,12.20
2019-05-01T21:48:55.838Z,13.30
2019-05-01T21:51:22.746Z,13.53
2019-05-01T21:53:48.706Z,13.33
2019-05-01T21:56:14.107Z,14.20
2019-05-01T21:58:39.470Z,14.67
2019-05-01T22:01:06.255Z,12.77
2019-05-01T22:03:31.727Z,14.73
2019-05-01T22:05:57.079Z,16.77
2019-05-01T22:08:22.990Z,17.20
2019-05-01T22:10:52.004Z,18.97
2019-05-01T22:13:20.341Z,22.00
2019-05-01T22:15:48.996Z,22.30
2019-05-01T22:18:22.763Z,19.03
2019-05-01T22:20:56.459Z,19.73
2019-05-01T22:23:23.261Z,20.23
2019-05-01T22:25:51.080Z,20.13
2019-05-01T22:28:41.686Z,21.57
2019-05-01T22:31:35.106Z,20.60
2019-05-01T22:34:12.435Z,22.07
2019-05-01T22:36:37.857Z,20.57
2019-05-01T22:39:06.114Z,19.23
2019-05-01T22:41:31.846Z,22.13
2019-05-01T22:43:57.341Z,18.60
2019-05-01T22:46:27.813Z,20.43
2019-05-01T22:48:53.205Z,20.50
2019-05-01T22:51:23.559Z,18.90
2019-05-01T22:53:54.544Z,21.30
2019-05-01T22:56:19.923Z,20.87
2019-05-01T22:58:45.338Z,19.80
2019-05-01T23:01:13.165Z,22.67
2019-05-01T23:03:49.102Z,23.80
2019-05-01T23:06:14.471Z,21.03
2019-05-01T23:08:39.865Z,20.47
2019-05-01T23:11:18.551Z,22.17
2019-05-01T23:13:32.491Z,22.80
2019-05-01T23:15:58.101Z,23.67
2019-05-01T23:18:23.739Z,21.83
2019-05-01T23:20:49.095Z,25.37
2019-05-01T23:23:14.497Z,23.13
2019-05-01T23:25:41.128Z,21.30
2019-05-01T23:28:06.874Z,24.93
2019-05-01T23:30:32.340Z,25.23
2019-05-01T23:32:57.706Z,30.53
2019-05-01T23:35:23.086Z,24.30
2019-05-01T23:37:49.348Z,23.07
2019-05-01T23:40:17.257Z,23.93
2019-05-01T23:42:43.300Z,23.90
2019-05-01T23:45:10.975Z,22.77
2019-05-01T23:47:36.342Z,27.83
2019-05-01T23:50:13.024Z,23.67
2019-05-01T23:52:38.613Z,25.63
2019-05-01T23:55:05.326Z,26.10
2019-05-01T23:57:30.716Z,23.43
2019-05-01T23:59:56.074Z,25.07
